Aeolos — V7PS2 — position and weather

sailwx.info

Track history (hours):
 
Tides and Currents Weather Stations Pressure Air Temp Water Temp Dewpoint Dewpoint Depression Visibility Wind Speed Wind Dir Waves Ship Positions

Aeolos

Last reported at 2017-Jun-30 21:03 UTC. Time now 2017-Jul-26 20:40 UTC.
Position S 25°30' W 046°26'.
Warning: this ship's position is 25 days out of date.

Length 172 m; draft 7 m.

Type: Cargo ship. MMSI: 538003275.

Date/timePositionNaut miles runAvg speedWind from/ knotsBaromVisibWave heightAir tempDewpointWater temp
2017-Jun-30 21:03S 25°30' W 046°26'112.8
2017-Jun-30 20:58S 25°29' W 046°25'612.9
2017-Jun-30 20:30S 25°23' W 046°25'713.0
2017-Jun-30 20:00S 25°16' W 046°25'613.1
2017-Jun-30 19:30S 25°10' W 046°25'713.1
2017-Jun-30 19:00S 25°03' W 046°25'612.8
2017-Jun-30 18:30S 24°57' W 046°24'613.0
2017-Jun-30 18:00S 24°50' W 046°24'613.0
2017-Jun-30 17:30S 24°44' W 046°24'713.1
2017-Jun-30 17:00S 24°37' W 046°24'713.1
2017-Jun-30 16:30S 24°31' W 046°24'713.2
2017-Jun-30 16:00S 24°24' W 046°24'713.4
2017-Jun-30 15:30S 24°17' W 046°23'713.4
2017-Jun-30 15:00S 24°11' W 046°23'612.9
2017-Jun-30 14:30S 24°04' W 046°22'510.5
2017-Jun-30 14:00S 23°60' W 046°20'3 5.2
2017-Jun-30 13:27S 23°57' W 046°19'1 0.0
2017-Jun-29 04:22S 23°56' W 046°19'1 0.0
2017-Jun-28 12:16S 23°57' W 046°19'2 6.6
2017-Jun-28 12:00S 23°58' W 046°17'4 7.3
2017-Jun-28 11:30S 24°01' W 046°20'2 4.1
2017-Jun-28 11:00S 24°03' W 046°20'3 5.5
2017-Jun-28 10:30S 24°04' W 046°17'2 4.8
2017-Jun-28 10:00S 24°04' W 046°14'0 0.4
2017-Jun-28 09:30S 24°04' W 046°14'0 0.4
2017-Jun-28 09:00S 24°04' W 046°14'0 0.3
2017-Jun-28 08:29S 24°04' W 046°15'0 0.2
2017-Jun-28 08:00S 24°04' W 046°15'0 0.2
2017-Jun-28 07:30S 24°04' W 046°15'0 0.2
2017-Jun-28 07:00S 24°04' W 046°15'0 0.1
2017-Jun-28 06:30S 24°04' W 046°15'0 0.2
2017-Jun-28 06:00S 24°04' W 046°15'0 0.5
2017-Jun-28 05:30S 24°04' W 046°15'4 8.0
2017-Jun-28 05:00S 24°05' W 046°10'612.8
2017-Jun-28 04:30S 24°05' W 046°03'713.1
2017-Jun-28 04:00S 24°03' W 045°56'712.9
2017-Jun-28 03:29S 24°02' W 045°49'712.6
2017-Jun-28 02:56S 23°59' W 045°42'512.7
2017-Jun-28 02:30S 23°57' W 045°37'713.2
2017-Jun-28 02:00S 23°54' W 045°30'  
Track history (hours):
 
Tides and Currents Weather Stations Pressure Air Temp Water Temp Dewpoint Dewpoint Depression Visibility Wind Speed Wind Dir Waves Ship Positions

Aeolos

Last reported at 2017-Jun-30 21:03 UTC. Time now 2017-Jul-26 20:40 UTC.
Position S 25°30' W 046°26'.
Warning: this ship's position is 25 days out of date.

Length 172 m; draft 7 m.

Type: Cargo ship. MMSI: 538003275.

Date/timePositionNaut miles runAvg speedWind from/ knotsBaromVisibWave heightAir tempDewpointWater temp
2017-Jun-30 21:03S 25°30' W 046°26'112.8
2017-Jun-30 20:58S 25°29' W 046°25'612.9
2017-Jun-30 20:30S 25°23' W 046°25'713.0
2017-Jun-30 20:00S 25°16' W 046°25'613.1
2017-Jun-30 19:30S 25°10' W 046°25'713.1
2017-Jun-30 19:00S 25°03' W 046°25'612.8
2017-Jun-30 18:30S 24°57' W 046°24'613.0
2017-Jun-30 18:00S 24°50' W 046°24'613.0
2017-Jun-30 17:30S 24°44' W 046°24'713.1
2017-Jun-30 17:00S 24°37' W 046°24'713.1
2017-Jun-30 16:30S 24°31' W 046°24'713.2
2017-Jun-30 16:00S 24°24' W 046°24'713.4
2017-Jun-30 15:30S 24°17' W 046°23'713.4
2017-Jun-30 15:00S 24°11' W 046°23'612.9
2017-Jun-30 14:30S 24°04' W 046°22'510.5
2017-Jun-30 14:00S 23°60' W 046°20'3 5.2
2017-Jun-30 13:27S 23°57' W 046°19'1 0.0
2017-Jun-29 04:22S 23°56' W 046°19'1 0.0
2017-Jun-28 12:16S 23°57' W 046°19'2 6.6
2017-Jun-28 12:00S 23°58' W 046°17'4 7.3
2017-Jun-28 11:30S 24°01' W 046°20'2 4.1
2017-Jun-28 11:00S 24°03' W 046°20'3 5.5
2017-Jun-28 10:30S 24°04' W 046°17'2 4.8
2017-Jun-28 10:00S 24°04' W 046°14'0 0.4
2017-Jun-28 09:30S 24°04' W 046°14'0 0.4
2017-Jun-28 09:00S 24°04' W 046°14'0 0.3
2017-Jun-28 08:29S 24°04' W 046°15'0 0.2
2017-Jun-28 08:00S 24°04' W 046°15'0 0.2
2017-Jun-28 07:30S 24°04' W 046°15'0 0.2
2017-Jun-28 07:00S 24°04' W 046°15'0 0.1
2017-Jun-28 06:30S 24°04' W 046°15'0 0.2
2017-Jun-28 06:00S 24°04' W 046°15'0 0.5
2017-Jun-28 05:30S 24°04' W 046°15'4 8.0
2017-Jun-28 05:00S 24°05' W 046°10'612.8
2017-Jun-28 04:30S 24°05' W 046°03'713.1
2017-Jun-28 04:00S 24°03' W 045°56'712.9
2017-Jun-28 03:29S 24°02' W 045°49'712.6
2017-Jun-28 02:56S 23°59' W 045°42'512.7
2017-Jun-28 02:30S 23°57' W 045°37'713.2
2017-Jun-28 02:00S 23°54' W 045°30'  

Dump ship's entire track history